Time;durP1;ratioP1;P1;durP2;ratioP2;P2;SDS_P1;SDS_P2;PMS_P1;PMS_P2;Temp;Humidity;BMP_temperature;BMP_pressure;BME280_temperature;BME280_humidity;BME280_pressure;Samples;Min_cycle;Max_cycle;Signal;HPM_P1;HPM_P2
2023/09/28 00:02:52;;;;;;;6.95;2.90;;;20.90;54.30;;;;;;5100784;28;20048;-42
2023/09/28 00:05:19;;;;;;;4.30;2.83;;;20.90;54.20;;;;;;5094880;28;20606;-40
2023/09/28 00:07:48;;;;;;;5.53;3.05;;;20.90;54.20;;;;;;5093705;28;20048;-41
2023/09/28 00:10:16;;;;;;;4.85;3.10;;;21.00;54.20;;;;;;5095084;28;20598;-40
2023/09/28 00:12:46;;;;;;;8.20;3.35;;;21.00;54.10;;;;;;5094443;28;20071;-41
2023/09/28 00:15:14;;;;;;;5.25;3.47;;;21.00;54.00;;;;;;5094384;28;20067;-43
2023/09/28 00:17:41;;;;;;;5.88;3.17;;;21.00;54.00;;;;;;5092858;28;20059;-43
2023/09/28 00:20:13;;;;;;;3.72;2.80;;;21.00;53.90;;;;;;5094635;28;20058;-39
2023/09/28 00:22:41;;;;;;;5.78;3.10;;;21.10;54.40;;;;;;5094081;28;21239;-40
2023/09/28 00:25:09;;;;;;;3.75;2.80;;;21.10;53.90;;;;;;5093818;28;20047;-41
2023/09/28 00:27:37;;;;;;;4.90;2.83;;;21.10;53.90;;;;;;5092088;28;20443;-44
2023/09/28 00:30:06;;;;;;;4.90;2.95;;;21.10;53.90;;;;;;5094300;28;20048;-41
2023/09/28 00:32:35;;;;;;;6.28;3.55;;;21.10;53.80;;;;;;5092157;28;20062;-40
2023/09/28 00:35:01;;;;;;;7.82;3.00;;;21.10;53.90;;;;;;5093589;28;20082;-41
2023/09/28 00:37:29;;;;;;;6.10;3.50;;;21.10;53.80;;;;;;5094761;28;20047;-40
2023/09/28 00:39:56;;;;;;;5.22;3.25;;;21.10;53.80;;;;;;5086779;28;20044;-40
2023/09/28 00:42:23;;;;;;;5.18;3.08;;;21.10;53.80;;;;;;5077584;28;20047;-40
2023/09/28 00:44:51;;;;;;;6.35;3.00;;;21.10;53.80;;;;;;5081002;28;20047;-40
2023/09/28 00:47:18;;;;;;;8.68;3.22;;;21.10;53.80;;;;;;5080802;28;20048;-39
2023/09/28 00:49:47;;;;;;;5.22;3.67;;;21.10;53.80;;;;;;5081294;28;20408;-40
2023/09/28 00:52:16;;;;;;;4.97;3.00;;;21.10;53.80;;;;;;5079591;28;20044;-40
2023/09/28 00:54:44;;;;;;;6.15;2.85;;;21.10;53.80;;;;;;5079096;28;20056;-42
2023/09/28 00:57:11;;;;;;;7.63;3.17;;;21.10;53.80;;;;;;5081118;28;20492;-42
2023/09/28 00:59:38;;;;;;;7.32;3.25;;;21.20;53.90;;;;;;5081562;28;20044;-39
2023/09/28 01:02:05;;;;;;;4.25;2.60;;;21.20;53.90;;;;;;5079345;28;20055;-43
2023/09/28 01:04:31;;;;;;;5.53;3.20;;;21.20;53.90;;;;;;5080025;28;20059;-42
2023/09/28 01:07:00;;;;;;;5.60;2.95;;;21.20;53.80;;;;;;5083082;28;20056;-40
2023/09/28 01:09:26;;;;;;;5.68;3.42;;;21.20;53.80;;;;;;5081117;28;20044;-40
2023/09/28 01:11:55;;;;;;;4.15;2.88;;;21.20;53.80;;;;;;5077078;28;20504;-46
2023/09/28 01:14:22;;;;;;;4.63;2.90;;;21.20;53.80;;;;;;5078674;28;20110;-54
2023/09/28 01:16:49;;;;;;;8.45;2.97;;;21.20;53.80;;;;;;5079639;28;20050;-53
2023/09/28 01:19:15;;;;;;;3.90;2.90;;;21.20;53.90;;;;;;5080688;28;20039;-54
2023/09/28 01:21:43;;;;;;;5.75;2.85;;;21.20;53.90;;;;;;5077136;28;20048;-46
2023/09/28 01:24:10;;;;;;;5.57;3.30;;;21.20;53.90;;;;;;5081611;28;20519;-53
2023/09/28 01:26:39;;;;;;;4.20;3.20;;;21.10;54.40;;;;;;5080806;28;20075;-53
2023/09/28 01:29:05;;;;;;;6.53;3.15;;;21.20;54.10;;;;;;5078281;28;20522;-53
2023/09/28 01:31:33;;;;;;;3.97;2.78;;;21.20;54.20;;;;;;5078561;28;20559;-52
2023/09/28 01:33:59;;;;;;;3.33;2.58;;;21.20;54.30;;;;;;5079270;28;20056;-51
2023/09/28 01:36:27;;;;;;;3.95;3.00;;;21.20;54.20;;;;;;5079679;28;20055;-52
2023/09/28 01:38:57;;;;;;;6.90;2.83;;;21.10;54.20;;;;;;5078081;28;20484;-52
2023/09/28 01:41:26;;;;;;;5.18;2.80;;;21.10;54.20;;;;;;5079554;28;20058;-53
2023/09/28 01:43:52;;;;;;;5.20;3.15;;;21.20;54.20;;;;;;5078077;28;20052;-53
2023/09/28 01:46:19;;;;;;;4.18;3.13;;;21.10;54.10;;;;;;5076906;28;20051;-44
2023/09/28 01:48:45;;;;;;;3.13;2.63;;;21.10;54.20;;;;;;5080365;28;20044;-50
2023/09/28 01:51:13;;;;;;;4.43;2.85;;;21.10;54.20;;;;;;5076784;28;20048;-51
2023/09/28 01:53:40;;;;;;;3.28;2.50;;;21.10;54.20;;;;;;5079687;28;20048;-51
2023/09/28 01:56:06;;;;;;;5.03;2.92;;;21.10;54.30;;;;;;5076309;28;20052;-52
2023/09/28 01:58:35;;;;;;;3.95;3.03;;;21.10;54.30;;;;;;5079582;28;20899;-53
2023/09/28 02:01:02;;;;;;;4.18;2.92;;;21.10;54.30;;;;;;5078511;28;20048;-48
2023/09/28 02:03:29;;;;;;;3.85;2.92;;;21.00;54.30;;;;;;5079374;28;20052;-48
2023/09/28 02:05:56;;;;;;;7.75;2.95;;;21.10;54.40;;;;;;5076374;28;20052;-53
2023/09/28 02:08:23;;;;;;;4.05;2.83;;;21.10;54.40;;;;;;5078345;28;20059;-51
2023/09/28 02:10:49;;;;;;;3.80;3.03;;;21.00;54.30;;;;;;5081660;28;20056;-49
2023/09/28 02:13:16;;;;;;;3.63;2.88;;;21.00;54.30;;;;;;5076372;28;21008;-47
2023/09/28 02:15:44;;;;;;;3.83;3.00;;;21.00;54.30;;;;;;5080701;28;20056;-52
2023/09/28 02:18:11;;;;;;;5.22;3.03;;;21.00;54.30;;;;;;5075533;28;20055;-52
2023/09/28 02:20:39;;;;;;;6.07;3.13;;;20.90;54.20;;;;;;5080335;28;20052;-40
2023/09/28 02:23:09;;;;;;;5.55;2.70;;;20.90;54.20;;;;;;5076334;28;20065;-39
2023/09/28 02:25:35;;;;;;;4.68;3.13;;;20.90;54.30;;;;;;5077382;28;20411;-39
2023/09/28 02:28:02;;;;;;;4.40;2.90;;;20.90;54.30;;;;;;5074495;28;20059;-44
2023/09/28 02:30:29;;;;;;;4.35;2.92;;;20.90;54.40;;;;;;5075821;28;20051;-39
2023/09/28 02:32:57;;;;;;;6.13;3.17;;;20.80;54.30;;;;;;5076242;28;20051;-39
2023/09/28 02:35:24;;;;;;;7.07;3.08;;;20.80;54.40;;;;;;5077214;28;20056;-38
2023/09/28 02:37:51;;;;;;;5.72;3.00;;;20.80;54.40;;;;;;5079686;28;20044;-39
2023/09/28 02:40:19;;;;;;;5.68;2.83;;;20.80;54.40;;;;;;5077807;28;20058;-39
2023/09/28 02:42:48;;;;;;;4.60;3.00;;;20.80;54.50;;;;;;5079755;28;20051;-40
2023/09/28 02:45:14;;;;;;;4.57;2.78;;;20.80;54.50;;;;;;5079364;28;20506;-41
2023/09/28 02:47:43;;;;;;;4.22;2.75;;;20.80;54.40;;;;;;5078990;28;20090;-40
2023/09/28 02:50:12;;;;;;;4.50;3.00;;;20.80;54.40;;;;;;5078462;28;20051;-43
2023/09/28 02:52:40;;;;;;;5.70;2.75;;;20.70;54.40;;;;;;5075631;28;20056;-43
2023/09/28 02:55:08;;;;;;;3.83;2.67;;;20.70;54.40;;;;;;5079257;28;20420;-39
2023/09/28 02:57:35;;;;;;;3.83;3.00;;;20.70;54.40;;;;;;5079564;28;20059;-39
2023/09/28 03:00:17;;;;;;;8.07;3.03;;;20.70;54.50;;;;;;5078303;28;20044;-40
2023/09/28 03:02:44;;;;;;;4.47;2.85;;;20.70;54.50;;;;;;5077899;28;20415;-40
2023/09/28 03:05:15;;;;;;;4.22;2.90;;;20.70;54.50;;;;;;5078260;28;20047;-42
2023/09/28 03:07:42;;;;;;;4.30;2.63;;;20.70;54.60;;;;;;5079676;28;20052;-39
2023/09/28 03:10:11;;;;;;;3.10;2.65;;;20.70;54.50;;;;;;5078961;28;20048;-40
2023/09/28 03:12:38;;;;;;;5.35;3.10;;;20.60;55.00;;;;;;5079336;28;20052;-44
2023/09/28 03:15:10;;;;;;;4.50;3.03;;;20.60;54.50;;;;;;5078600;28;20051;-39
2023/09/28 03:17:37;;;;;;;9.57;3.30;;;20.60;54.50;;;;;;5076834;28;20051;-40
2023/09/28 03:20:09;;;;;;;5.53;2.95;;;20.60;54.50;;;;;;5078210;28;20463;-43
2023/09/28 03:22:37;;;;;;;4.50;2.60;;;20.60;54.50;;;;;;5076588;28;20052;-41
2023/09/28 03:25:11;;;;;;;4.50;3.20;;;20.50;54.50;;;;;;5078036;28;20059;-39
2023/09/28 03:27:37;;;;;;;5.85;3.20;;;20.50;54.60;;;;;;5077656;28;20056;-39
2023/09/28 03:30:09;;;;;;;3.83;2.63;;;20.50;54.60;;;;;;5076782;28;20498;-43
2023/09/28 03:32:35;;;;;;;3.45;2.45;;;20.50;54.60;;;;;;5076533;28;20082;-53
2023/09/28 03:35:04;;;;;;;4.32;2.83;;;20.40;54.60;;;;;;5076825;28;20720;-51
2023/09/28 03:37:31;;;;;;;6.78;3.28;;;20.40;54.70;;;;;;5078402;28;20048;-50
2023/09/28 03:40:00;;;;;;;6.43;3.30;;;20.40;54.70;;;;;;5076891;28;20044;-49
2023/09/28 03:42:28;;;;;;;5.55;3.20;;;20.40;54.80;;;;;;5074865;28;20049;-53
2023/09/28 03:44:55;;;;;;;10.40;3.33;;;20.40;54.80;;;;;;5078344;28;20052;-53
2023/09/28 03:47:22;;;;;;;4.30;3.08;;;20.40;54.90;;;;;;5074210;28;20071;-54
2023/09/28 03:49:50;;;;;;;4.28;3.17;;;20.40;54.90;;;;;;5076801;28;20048;-49
2023/09/28 03:52:17;;;;;;;4.30;3.03;;;20.30;54.90;;;;;;5076573;28;20047;-43
2023/09/28 03:54:44;;;;;;;4.45;3.20;;;20.30;54.90;;;;;;5079099;28;20055;-49
2023/09/28 03:57:13;;;;;;;5.43;3.30;;;20.30;55.00;;;;;;5081095;28;20059;-48
2023/09/28 03:59:40;;;;;;;5.88;3.40;;;20.30;55.50;;;;;;5080784;28;20056;-51
2023/09/28 04:02:08;;;;;;;5.03;3.20;;;20.30;55.00;;;;;;5079577;28;20052;-53
2023/09/28 04:04:35;;;;;;;7.15;4.90;;;20.20;55.00;;;;;;5079123;28;20052;-51
2023/09/28 04:07:03;;;;;;;7.22;4.45;;;20.20;55.10;;;;;;5080797;28;20052;-52
2023/09/28 04:09:32;;;;;;;8.00;3.90;;;20.20;55.10;;;;;;5080771;28;20075;-53
2023/09/28 04:11:59;;;;;;;5.43;3.80;;;20.20;55.10;;;;;;5075981;28;20052;-53
2023/09/28 04:14:28;;;;;;;5.35;3.20;;;20.20;55.10;;;;;;5079728;28;20078;-53
2023/09/28 04:16:56;;;;;;;4.43;3.35;;;20.10;55.10;;;;;;5077840;28;20055;-54
2023/09/28 04:19:23;;;;;;;9.88;4.18;;;20.10;55.10;;;;;;5081894;28;20522;-52
2023/09/28 04:21:50;;;;;;;5.85;3.92;;;20.10;55.20;;;;;;5081038;28;20044;-53
2023/09/28 04:24:18;;;;;;;4.43;3.20;;;20.10;55.20;;;;;;5080171;28;20052;-50
2023/09/28 04:26:45;;;;;;;5.22;3.28;;;20.00;55.20;;;;;;5081869;28;20052;-52
2023/09/28 04:29:12;;;;;;;4.38;3.17;;;20.10;55.30;;;;;;5078554;28;20457;-53
2023/09/28 04:31:41;;;;;;;5.20;2.92;;;20.00;55.30;;;;;;5079548;28;20056;-52
2023/09/28 04:34:08;;;;;;;5.97;3.22;;;20.00;55.40;;;;;;5080639;28;20043;-48
2023/09/28 04:36:38;;;;;;;4.13;2.80;;;20.00;55.40;;;;;;5081686;28;20074;-52
2023/09/28 04:39:10;;;;;;;3.53;2.50;;;20.00;55.30;;;;;;5082465;28;20055;-53
2023/09/28 04:41:38;;;;;;;4.78;3.22;;;20.00;55.30;;;;;;5081749;28;20063;-39
2023/09/28 04:44:06;;;;;;;5.03;3.13;;;20.00;55.30;;;;;;5081639;28;20048;-44
2023/09/28 04:46:34;;;;;;;5.63;3.00;;;19.90;55.30;;;;;;5078724;28;20060;-39
2023/09/28 04:49:03;;;;;;;4.15;2.47;;;19.90;55.40;;;;;;5082489;28;20056;-39
2023/09/28 04:51:30;;;;;;;4.63;2.55;;;19.90;55.40;;;;;;5078638;28;20048;-39
2023/09/28 04:53:57;;;;;;;5.20;3.00;;;20.00;55.50;;;;;;5080158;28;20123;-41
2023/09/28 04:56:24;;;;;;;6.55;3.00;;;20.00;55.50;;;;;;5081287;28;20067;-40
2023/09/28 04:58:52;;;;;;;5.22;2.80;;;19.90;55.50;;;;;;5079693;28;20407;-40
2023/09/28 05:01:19;;;;;;;3.25;2.63;;;19.90;55.50;;;;;;5079461;28;20055;-39
2023/09/28 05:03:47;;;;;;;4.63;2.60;;;20.00;55.50;;;;;;5079768;28;20058;-41
2023/09/28 05:06:16;;;;;;;6.05;2.83;;;19.90;55.40;;;;;;5077283;28;20423;-44
2023/09/28 05:08:44;;;;;;;4.70;2.83;;;19.90;55.50;;;;;;5082006;28;20047;-39
2023/09/28 05:11:12;;;;;;;6.13;3.00;;;19.90;55.40;;;;;;5081798;28;20056;-42
2023/09/28 05:13:39;;;;;;;5.28;3.00;;;19.90;55.30;;;;;;5081489;28;20059;-39
2023/09/28 05:16:07;;;;;;;5.38;2.58;;;19.90;55.40;;;;;;5081447;28;20509;-41
2023/09/28 05:18:36;;;;;;;6.03;3.10;;;19.90;55.30;;;;;;5080766;28;20060;-39
2023/09/28 05:21:03;;;;;;;6.18;2.75;;;19.90;55.40;;;;;;5081025;28;20048;-43
2023/09/28 05:23:32;;;;;;;4.68;2.92;;;19.90;55.50;;;;;;5081202;28;20060;-38
2023/09/28 05:26:00;;;;;;;5.10;2.90;;;19.80;55.50;;;;;;5080856;28;20603;-40
2023/09/28 05:28:29;;;;;;;3.20;2.58;;;19.80;55.50;;;;;;5080364;28;20078;-38
2023/09/28 05:30:56;;;;;;;5.10;2.97;;;19.80;55.50;;;;;;5080308;28;20052;-39
2023/09/28 05:33:23;;;;;;;5.03;2.80;;;19.80;55.60;;;;;;5078645;28;20048;-42
2023/09/28 05:35:50;;;;;;;3.97;2.90;;;19.80;55.70;;;;;;5081552;28;20051;-41
2023/09/28 05:38:18;;;;;;;3.78;3.03;;;19.80;55.70;;;;;;5081254;28;20059;-40
2023/09/28 05:40:46;;;;;;;4.47;3.20;;;19.70;55.70;;;;;;5062339;28;20052;-45
2023/09/28 05:43:14;;;;;;;4.80;3.00;;;19.70;55.70;;;;;;5060034;28;20057;-45
2023/09/28 05:45:41;;;;;;;4.18;2.80;;;19.70;55.70;;;;;;5060998;28;20052;-40
2023/09/28 05:48:08;;;;;;;5.90;3.10;;;19.70;55.80;;;;;;5057493;28;20045;-40
2023/09/28 05:50:36;;;;;;;3.88;2.60;;;19.70;55.80;;;;;;5059315;28;20056;-40
2023/09/28 05:53:03;;;;;;;5.60;2.80;;;19.70;55.80;;;;;;5058789;28;20489;-46
2023/09/28 05:55:30;;;;;;;4.03;2.97;;;19.70;55.80;;;;;;5057862;28;20053;-51
2023/09/28 05:57:59;;;;;;;6.22;2.92;;;19.70;55.80;;;;;;5061442;28;20048;-53
2023/09/28 06:00:26;;;;;;;4.95;3.13;;;19.70;55.80;;;;;;5057536;28;20060;-52
2023/09/28 06:02:53;;;;;;;4.82;3.35;;;19.70;55.80;;;;;;5056478;28;20067;-53
2023/09/28 06:05:20;;;;;;;6.50;3.80;;;19.70;55.80;;;;;;5058328;28;20052;-53
2023/09/28 06:07:48;;;;;;;3.90;3.15;;;19.70;55.80;;;;;;5059590;28;20056;-51
2023/09/28 06:10:15;;;;;;;4.68;3.20;;;19.70;55.90;;;;;;5060786;28;20516;-52
2023/09/28 06:12:43;;;;;;;76.45;41.25;;;19.70;56.00;;;;;;5060652;28;20530;-53
2023/09/28 06:15:12;;;;;;;21.77;11.27;;;19.60;56.00;;;;;;5059916;28;20412;-49
2023/09/28 06:17:39;;;;;;;10.35;5.10;;;19.60;56.10;;;;;;5056895;28;20060;-51
2023/09/28 06:20:09;;;;;;;6.43;3.80;;;19.70;56.10;;;;;;5059280;28;20131;-53
2023/09/28 06:22:36;;;;;;;6.00;3.53;;;19.60;56.20;;;;;;5057938;28;20056;-53
2023/09/28 06:25:03;;;;;;;6.38;3.55;;;19.70;56.30;;;;;;5059701;28;20595;-53
2023/09/28 06:27:32;;;;;;;5.28;3.40;;;19.60;56.30;;;;;;5058703;28;20060;-53
2023/09/28 06:29:59;;;;;;;4.95;3.25;;;19.70;56.40;;;;;;5057996;28;20052;-51
2023/09/28 06:32:27;;;;;;;7.50;3.05;;;19.70;56.40;;;;;;5056643;28;20415;-47
2023/09/28 06:34:55;;;;;;;5.50;3.45;;;19.70;56.50;;;;;;5057828;28;20059;-48
2023/09/28 06:37:23;;;;;;;4.93;3.15;;;19.70;56.60;;;;;;5059944;28;20056;-53
2023/09/28 06:39:50;;;;;;;6.88;3.42;;;19.80;56.70;;;;;;5058611;28;20411;-49
2023/09/28 06:42:17;;;;;;;6.78;2.97;;;19.80;56.80;;;;;;5058907;28;20048;-51
2023/09/28 06:44:44;;;;;;;5.95;3.13;;;19.80;56.80;;;;;;5058988;28;20531;-46
2023/09/28 06:47:11;;;;;;;10.98;3.67;;;19.80;56.80;;;;;;5058240;28;20044;-47
2023/09/28 06:49:40;;;;;;;11.30;3.83;;;19.90;56.90;;;;;;5057974;28;20412;-49
2023/09/28 06:52:07;;;;;;;6.78;3.20;;;20.00;56.90;;;;;;5056373;28;20396;-51
2023/09/28 06:54:36;;;;;;;5.43;3.30;;;20.00;56.90;;;;;;5057080;28;20060;-54
2023/09/28 06:57:04;;;;;;;5.55;3.40;;;20.00;57.40;;;;;;5052511;28;21042;-50
2023/09/28 06:59:31;;;;;;;5.72;3.05;;;20.00;56.90;;;;;;5058630;28;20060;-50
2023/09/28 07:01:58;;;;;;;9.02;3.47;;;20.10;57.00;;;;;;5057337;28;20055;-40
2023/09/28 07:04:27;;;;;;;5.78;3.40;;;20.10;57.00;;;;;;5057354;28;20412;-39
2023/09/28 07:06:55;;;;;;;7.35;3.58;;;20.20;57.00;;;;;;5058807;28;20056;-39
2023/09/28 07:09:22;;;;;;;9.25;3.38;;;20.20;56.90;;;;;;5059528;28;20055;-40
2023/09/28 07:11:50;;;;;;;205.85;93.90;;;20.30;57.00;;;;;;5056687;28;20048;-39
2023/09/28 07:14:17;;;;;;;53.13;28.27;;;20.30;56.90;;;;;;5058610;28;20053;-44
2023/09/28 07:16:44;;;;;;;14.95;9.13;;;20.30;56.90;;;;;;5058545;28;20492;-43
2023/09/28 07:19:12;;;;;;;9.27;4.43;;;20.30;56.90;;;;;;5060175;28;20053;-40
2023/09/28 07:21:39;;;;;;;6.30;3.90;;;20.40;57.00;;;;;;5056605;28;20058;-39
2023/09/28 07:24:08;;;;;;;8.07;3.22;;;20.50;57.00;;;;;;5057807;28;20056;-40
2023/09/28 07:26:35;;;;;;;4.00;2.97;;;20.50;57.00;;;;;;5058946;28;20262;-40
2023/09/28 07:29:04;;;;;;;5.47;2.75;;;20.50;57.00;;;;;;5057414;28;20060;-41
2023/09/28 07:31:31;;;;;;;4.20;2.90;;;20.50;57.00;;;;;;5056912;28;20071;-39
2023/09/28 07:34:00;;;;;;;4.68;3.13;;;20.60;57.00;;;;;;5056309;28;20063;-40
2023/09/28 07:36:29;;;;;;;6.13;2.67;;;20.60;57.00;;;;;;5054120;28;20102;-40
2023/09/28 07:38:59;;;;;;;4.93;2.90;;;20.70;57.10;;;;;;5056918;28;20424;-40
2023/09/28 07:41:30;;;;;;;7.10;2.95;;;20.70;57.10;;;;;;5057865;28;20057;-43
2023/09/28 07:43:59;;;;;;;4.95;3.00;;;20.80;57.20;;;;;;5058834;28;20048;-41
2023/09/28 07:46:28;;;;;;;4.97;3.28;;;20.80;57.10;;;;;;5058242;28;20536;-40
2023/09/28 07:48:57;;;;;;;7.07;3.30;;;20.80;57.10;;;;;;5056876;28;20059;-39
2023/09/28 07:51:26;;;;;;;5.88;2.95;;;20.90;57.20;;;;;;5061921;28;20064;-43
2023/09/28 07:53:55;;;;;;;5.40;3.08;;;20.90;57.20;;;;;;5062668;28;20059;-41
2023/09/28 07:56:27;;;;;;;6.75;2.95;;;21.00;57.20;;;;;;5061497;28;20056;-40
2023/09/28 07:58:59;;;;;;;5.72;2.88;;;21.00;57.30;;;;;;5061460;28;20060;-42
2023/09/28 08:01:27;;;;;;;4.22;2.83;;;21.00;57.30;;;;;;5060610;28;20056;-39
2023/09/28 08:03:55;;;;;;;3.30;2.72;;;21.10;57.30;;;;;;5062599;28;20045;-42
2023/09/28 08:06:22;;;;;;;3.95;2.75;;;21.10;57.40;;;;;;5062808;28;20408;-40
2023/09/28 08:08:49;;;;;;;4.78;2.95;;;21.20;57.40;;;;;;5055864;28;20048;-40
2023/09/28 08:11:17;;;;;;;4.15;2.83;;;21.20;57.40;;;;;;5059144;28;20052;-40
2023/09/28 08:13:44;;;;;;;5.35;2.80;;;21.30;57.40;;;;;;5061679;28;20048;-52
2023/09/28 08:16:13;;;;;;;7.43;3.00;;;21.40;57.40;;;;;;5060855;28;20048;-52
2023/09/28 08:18:40;;;;;;;5.43;3.10;;;21.40;57.30;;;;;;5060766;28;20053;-53
2023/09/28 08:21:08;;;;;;;4.35;2.78;;;21.50;57.20;;;;;;5059093;28;20492;-54
2023/09/28 08:23:36;;;;;;;4.90;3.10;;;21.50;56.90;;;;;;5061275;28;20134;-54
2023/09/28 08:26:03;;;;;;;7.55;3.33;;;21.60;57.20;;;;;;5059507;28;20595;-56
2023/09/28 08:28:30;;;;;;;15.15;4.00;;;21.70;56.90;;;;;;5061244;28;20060;-47
2023/09/28 08:31:04;;;;;;;78.75;6.65;;;21.70;56.40;;;;;;5058408;28;20060;-53
2023/09/28 08:33:33;;;;;;;5.50;3.17;;;21.80;56.20;;;;;;5059210;28;20055;-52
2023/09/28 08:36:00;;;;;;;8.52;3.00;;;21.90;56.00;;;;;;5060607;28;20053;-54
2023/09/28 08:38:27;;;;;;;5.53;3.08;;;22.00;56.00;;;;;;5060591;28;20052;-54
2023/09/28 08:41:00;;;;;;;9.07;2.75;;;22.00;55.50;;;;;;5061048;28;20530;-54
2023/09/28 08:43:31;;;;;;;9.98;2.80;;;22.10;55.60;;;;;;5060590;28;20622;-55
2023/09/28 08:46:01;;;;;;;7.65;3.10;;;22.10;55.70;;;;;;5060122;28;20056;-53
2023/09/28 08:48:30;;;;;;;4.55;2.60;;;22.30;55.80;;;;;;5061636;28;20060;-54
2023/09/28 08:51:08;;;;;;;6.30;2.80;;;22.30;55.70;;;;;;5059637;28;20503;-54
2023/09/28 08:53:38;;;;;;;10.15;3.33;;;22.40;55.50;;;;;;5060141;28;20056;-49
2023/09/28 08:56:06;;;;;;;6.90;3.00;;;22.40;55.50;;;;;;5061691;28;20049;-47
2023/09/28 08:58:35;;;;;;;5.93;3.30;;;22.50;55.20;;;;;;5060616;28;20503;-48
2023/09/28 09:01:03;;;;;;;4.80;2.70;;;22.60;54.80;;;;;;5056110;28;20053;-44
2023/09/28 09:03:32;;;;;;;12.88;3.10;;;22.70;54.60;;;;;;5059880;28;20041;-46
2023/09/28 09:06:05;;;;;;;10.27;3.00;;;22.70;54.60;;;;;;5059901;28;20063;-44
2023/09/28 09:08:35;;;;;;;16.17;3.17;;;22.80;54.50;;;;;;5060811;28;20059;-49
2023/09/28 09:11:03;;;;;;;21.20;3.88;;;22.80;54.50;;;;;;5059817;28;20056;-44
2023/09/28 09:13:30;;;;;;;14.88;3.13;;;22.90;54.60;;;;;;5060081;28;20052;-44
2023/09/28 09:15:57;;;;;;;7.90;3.13;;;22.90;54.70;;;;;;5058169;28;20278;-45
2023/09/28 09:18:26;;;;;;;5.30;3.05;;;22.90;54.60;;;;;;5060220;28;20059;-46
2023/09/28 09:21:00;;;;;;;6.05;3.42;;;23.00;54.60;;;;;;5060907;28;20053;-47
2023/09/28 09:23:30;;;;;;;8.82;3.65;;;23.00;54.10;;;;;;5058762;28;20052;-41
2023/09/28 09:25:57;;;;;;;8.70;3.65;;;23.00;54.10;;;;;;5061740;28;20068;-38
2023/09/28 09:28:29;;;;;;;6.65;3.47;;;23.10;53.70;;;;;;5060865;28;20065;-37
2023/09/28 09:30:57;;;;;;;10.00;3.28;;;23.10;54.00;;;;;;5058631;28;20063;-38
2023/09/28 09:33:24;;;;;;;10.23;3.58;;;23.10;53.90;;;;;;5058344;28;20075;-36
2023/09/28 09:35:51;;;;;;;8.25;4.00;;;23.20;53.90;;;;;;5061848;28;20523;-41
2023/09/28 09:38:23;;;;;;;7.32;3.67;;;23.20;54.00;;;;;;5060709;28;20075;-37
2023/09/28 09:40:59;;;;;;;8.20;3.20;;;23.20;53.90;;;;;;5058203;28;20119;-37
2023/09/28 09:43:31;;;;;;;11.82;3.72;;;23.20;53.70;;;;;;5059738;28;20777;-38
2023/09/28 09:45:58;;;;;;;7.53;3.53;;;23.20;53.60;;;;;;5059154;28;20057;-39
2023/09/28 09:48:26;;;;;;;8.57;3.55;;;23.20;53.80;;;;;;5060501;28;20535;-35
2023/09/28 09:50:53;;;;;;;7.30;3.35;;;23.30;53.70;;;;;;5058402;28;20044;-39
2023/09/28 09:53:22;;;;;;;8.05;3.83;;;23.30;53.60;;;;;;5058262;28;20055;-37
2023/09/28 09:55:51;;;;;;;8.05;4.10;;;23.40;53.10;;;;;;5060550;28;20052;-37
2023/09/28 09:58:23;;;;;;;9.05;4.15;;;23.40;52.70;;;;;;5061338;28;20055;-36
2023/09/28 10:00:52;;;;;;;6.95;3.70;;;23.40;52.80;;;;;;5055715;28;20052;-36
2023/09/28 10:03:21;;;;;;;9.90;3.90;;;23.40;52.80;;;;;;5057426;28;20052;-39
2023/09/28 10:05:50;;;;;;;6.80;4.07;;;23.40;53.40;;;;;;5060211;28;20488;-37
2023/09/28 10:08:18;;;;;;;32.97;5.72;;;23.40;53.20;;;;;;5059536;28;20048;-36
2023/09/28 10:10:46;;;;;;;6.35;3.50;;;23.50;53.50;;;;;;5059108;28;20064;-36
2023/09/28 10:13:15;;;;;;;6.55;3.78;;;23.60;53.50;;;;;;5059173;28;20477;-36
2023/09/28 10:15:45;;;;;;;10.48;3.40;;;23.60;52.70;;;;;;5059098;28;20052;-36
2023/09/28 10:18:14;;;;;;;62.58;6.03;;;23.60;52.90;;;;;;5059043;28;20060;-38
2023/09/28 10:20:41;;;;;;;9.70;3.90;;;23.70;53.20;;;;;;5057566;28;20629;-36
2023/09/28 10:23:13;;;;;;;46.17;5.10;;;23.70;52.70;;;;;;5059973;28;20044;-36
2023/09/28 10:25:54;;;;;;;17.67;3.88;;;23.80;53.40;;;;;;5057678;28;20048;-38
2023/09/28 10:28:21;;;;;;;99.80;7.25;;;23.80;53.10;;;;;;5059310;28;20534;-36
2023/09/28 10:31:15;;;;;;;12.18;3.80;;;23.90;53.00;;;;;;5053656;28;20066;-36
2023/09/28 10:33:58;;;;;;;15.85;3.80;;;24.00;52.70;;;;;;5059315;28;20053;-37
2023/09/28 10:36:27;;;;;;;7.20;3.30;;;24.10;53.00;;;;;;5058698;28;20420;-37
2023/09/28 10:39:09;;;;;;;8.77;3.47;;;24.10;52.80;;;;;;5057546;28;20048;-36
2023/09/28 10:41:38;;;;;;;7.03;4.15;;;24.10;52.30;;;;;;5056933;28;20063;-36
2023/09/28 10:44:16;;;;;;;8.02;3.80;;;24.20;52.00;;;;;;5058689;28;20040;-38
2023/09/28 10:46:47;;;;;;;7.05;3.38;;;24.20;52.30;;;;;;5060407;28;20071;-36
2023/09/28 10:49:16;;;;;;;8.80;4.10;;;24.20;52.50;;;;;;5059705;28;20057;-41
2023/09/28 10:51:44;;;;;;;9.20;4.03;;;24.20;52.50;;;;;;5057499;28;20048;-36
2023/09/28 10:54:13;;;;;;;11.52;4.57;;;24.20;52.20;;;;;;5054334;28;20127;-38
2023/09/28 10:56:40;;;;;;;7.97;3.80;;;24.20;51.80;;;;;;5057645;28;20053;-36
2023/09/28 10:59:09;;;;;;;8.70;3.95;;;24.20;52.30;;;;;;5058598;28;20629;-36
2023/09/28 11:01:41;;;;;;;7.75;3.60;;;24.20;52.10;;;;;;5059542;28;20056;-37
2023/09/28 11:04:10;;;;;;;9.30;3.90;;;24.20;52.10;;;;;;5059567;28;20052;-36
2023/09/28 11:06:38;;;;;;;14.05;3.95;;;24.20;52.10;;;;;;5060824;28;20419;-41
2023/09/28 11:09:08;;;;;;;10.38;3.83;;;24.30;52.00;;;;;;5058111;28;20057;-36
2023/09/28 11:11:37;;;;;;;9.20;3.97;;;24.30;51.90;;;;;;5055457;28;20063;-37
2023/09/28 11:14:06;;;;;;;6.30;3.40;;;24.20;52.10;;;;;;5061245;28;20067;-36
2023/09/28 11:16:34;;;;;;;6.63;3.22;;;24.30;52.90;;;;;;5058722;28;20056;-39
2023/09/28 11:19:03;;;;;;;14.15;3.47;;;24.30;52.60;;;;;;5061009;28;20048;-37
2023/09/28 11:21:32;;;;;;;10.98;3.85;;;24.40;52.80;;;;;;5060449;28;20057;-36
2023/09/28 11:24:02;;;;;;;6.85;3.53;;;24.40;52.90;;;;;;5060932;28;20598;-37
2023/09/28 11:26:30;;;;;;;6.25;3.15;;;24.40;52.60;;;;;;5060094;28;20057;-36
2023/09/28 11:28:58;;;;;;;14.73;3.75;;;24.50;52.30;;;;;;5060857;28;20079;-36
2023/09/28 11:31:27;;;;;;;6.00;3.72;;;24.50;52.40;;;;;;5059369;28;20060;-42
2023/09/28 11:33:57;;;;;;;10.25;3.53;;;24.60;52.00;;;;;;5057998;28;20469;-36
2023/09/28 11:36:25;;;;;;;19.33;4.03;;;24.60;52.10;;;;;;5058456;28;20428;-36
2023/09/28 11:38:55;;;;;;;7.88;3.40;;;24.60;51.90;;;;;;5060784;28;20048;-38
2023/09/28 11:41:23;;;;;;;7.40;3.40;;;24.70;51.90;;;;;;5061553;28;20060;-38
2023/09/28 11:43:53;;;;;;;7.47;4.00;;;24.70;52.10;;;;;;5061252;28;20044;-37
2023/09/28 11:46:22;;;;;;;7.13;3.67;;;24.70;51.80;;;;;;5059303;28;20507;-37
2023/09/28 11:49:03;;;;;;;8.23;3.90;;;24.70;51.90;;;;;;5060647;28;20057;-36
2023/09/28 11:51:31;;;;;;;6.80;3.75;;;24.80;51.30;;;;;;5059473;28;20049;-40
2023/09/28 11:54:00;;;;;;;25.02;3.92;;;24.80;51.70;;;;;;5060700;28;20048;-37
2023/09/28 11:56:28;;;;;;;7.57;3.40;;;24.80;51.60;;;;;;5059361;28;20048;-38
2023/09/28 11:58:55;;;;;;;4.97;3.05;;;24.90;51.80;;;;;;5060291;28;20052;-36
2023/09/28 12:01:23;;;;;;;9.27;3.50;;;24.90;51.70;;;;;;5059792;28;20049;-36
2023/09/28 12:03:50;;;;;;;7.85;3.42;;;24.90;51.70;;;;;;5059259;28;20334;-36
2023/09/28 12:06:18;;;;;;;9.95;3.60;;;24.90;51.60;;;;;;5060041;28;20090;-36
2023/09/28 12:08:46;;;;;;;5.70;3.35;;;25.00;51.60;;;;;;5060427;28;20059;-39
2023/09/28 12:11:15;;;;;;;14.93;3.85;;;25.00;51.60;;;;;;5060989;28;20056;-36
2023/09/28 12:13:42;;;;;;;10.63;4.13;;;25.00;51.60;;;;;;5059828;28;20053;-35
2023/09/28 12:16:10;;;;;;;5.85;2.88;;;25.10;51.30;;;;;;5058612;28;20048;-36
2023/09/28 12:18:38;;;;;;;9.07;3.75;;;25.10;51.30;;;;;;5060527;28;20262;-36
2023/09/28 12:21:05;;;;;;;6.68;3.03;;;25.10;51.50;;;;;;5059985;28;20059;-36
2023/09/28 12:23:33;;;;;;;6.05;3.40;;;25.10;51.20;;;;;;5060557;28;20053;-36
2023/09/28 12:26:01;;;;;;;13.48;3.90;;;25.20;51.20;;;;;;5060195;28;20950;-36
2023/09/28 12:28:30;;;;;;;10.88;3.05;;;25.10;51.00;;;;;;5058821;28;20056;-40
2023/09/28 12:30:58;;;;;;;7.05;2.83;;;25.20;51.30;;;;;;5058174;28;20052;-36
2023/09/28 12:33:25;;;;;;;8.60;3.70;;;25.20;51.50;;;;;;5060037;28;20388;-37
2023/09/28 12:35:53;;;;;;;8.30;3.58;;;25.30;51.40;;;;;;5062355;28;20476;-35
2023/09/28 12:38:20;;;;;;;6.03;3.58;;;25.30;51.40;;;;;;5063490;28;20075;-36
2023/09/28 12:40:48;;;;;;;6.93;3.15;;;25.30;51.30;;;;;;5062162;28;20519;-36
2023/09/28 12:43:17;;;;;;;7.00;3.42;;;25.40;51.50;;;;;;5062968;28;20048;-36
2023/09/28 12:45:45;;;;;;;4.72;2.67;;;25.40;51.50;;;;;;5062095;28;20049;-43
2023/09/28 12:48:17;;;;;;;7.07;3.05;;;25.40;51.70;;;;;;5061829;28;20059;-36
2023/09/28 12:50:45;;;;;;;7.80;3.55;;;25.40;51.40;;;;;;5063818;28;20056;-36
2023/09/28 12:53:12;;;;;;;7.60;3.20;;;25.50;51.50;;;;;;5064424;28;20049;-48